Time;durP1;ratioP1;P1;durP2;ratioP2;P2;SDS_P1;SDS_P2;PMS_P1;PMS_P2;Temp;Humidity;BMP_temperature;BMP_pressure;BME280_temperature;BME280_humidity;BME280_pressure;Samples;Min_cycle;Max_cycle;Signal;HPM_P1;HPM_P2
2022/09/28 00:00:29;;;;;;;145.40;137.40;;;9.80;99.90;;;;;;5089337;28;20824;-63
2022/09/28 00:02:58;;;;;;;134.37;126.93;;;9.70;99.90;;;;;;5090204;28;20420;-63
2022/09/28 00:05:25;;;;;;;133.30;126.00;;;9.80;99.90;;;;;;5091596;28;20377;-62
2022/09/28 00:07:53;;;;;;;134.52;127.20;;;9.80;99.90;;;;;;5090438;28;20497;-63
2022/09/28 00:10:21;;;;;;;138.95;131.20;;;9.80;99.90;;;;;;5091103;28;20674;-62
2022/09/28 00:12:50;;;;;;;143.00;135.32;;;9.70;99.90;;;;;;5092320;28;20421;-63
2022/09/28 00:15:16;;;;;;;158.40;149.68;;;9.70;99.90;;;;;;5090243;28;20406;-63
2022/09/28 00:17:45;;;;;;;163.63;154.77;;;9.70;99.90;;;;;;5091307;28;20393;-63
2022/09/28 00:20:11;;;;;;;156.85;148.10;;;9.60;99.90;;;;;;5091307;28;20652;-63
2022/09/28 00:22:37;;;;;;;176.53;166.73;;;9.60;99.90;;;;;;5090149;28;20519;-63
2022/09/28 00:25:04;;;;;;;179.95;170.25;;;9.60;99.90;;;;;;5091151;28;20390;-62
2022/09/28 00:27:30;;;;;;;192.45;182.23;;;9.60;99.90;;;;;;5091331;28;20370;-63
2022/09/28 00:29:56;;;;;;;188.55;178.25;;;9.60;99.90;;;;;;5089184;28;20738;-63
2022/09/28 00:32:23;;;;;;;189.05;178.95;;;9.60;99.90;;;;;;5090891;28;20790;-63
2022/09/28 00:34:50;;;;;;;172.95;163.63;;;9.70;99.90;;;;;;5092041;28;20374;-63
2022/09/28 00:37:17;;;;;;;158.43;149.67;;;9.70;99.90;;;;;;5090757;28;20382;-63
2022/09/28 00:39:44;;;;;;;161.45;152.43;;;9.80;99.90;;;;;;5092024;28;20484;-63
2022/09/28 00:42:14;;;;;;;183.02;173.07;;;9.70;99.90;;;;;;5092032;28;20889;-63
2022/09/28 00:44:47;;;;;;;192.18;181.90;;;9.60;99.90;;;;;;5090052;28;20386;-63
2022/09/28 00:47:24;;;;;;;169.80;160.52;;;9.60;99.90;;;;;;5091937;28;20378;-63
2022/09/28 00:49:58;;;;;;;189.90;179.73;;;9.60;99.90;;;;;;5091438;28;20421;-62
2022/09/28 00:52:30;;;;;;;132.68;125.38;;;9.50;99.90;;;;;;5092121;28;20390;-63
2022/09/28 00:55:00;;;;;;;150.75;142.55;;;9.50;99.90;;;;;;5092747;28;20467;-63
2022/09/28 00:57:26;;;;;;;137.38;129.82;;;9.50;99.90;;;;;;5089803;28;20389;-64
2022/09/28 00:59:52;;;;;;;135.98;128.52;;;9.60;99.90;;;;;;5089719;28;20393;-63
2022/09/28 01:02:18;;;;;;;134.00;126.80;;;9.60;99.90;;;;;;5089518;28;20740;-63
2022/09/28 01:04:45;;;;;;;118.88;112.43;;;9.70;99.90;;;;;;5091224;28;20465;-63
2022/09/28 01:07:11;;;;;;;121.27;114.67;;;9.70;99.90;;;;;;5092009;28;20552;-63
2022/09/28 01:09:39;;;;;;;124.83;118.13;;;9.60;99.90;;;;;;5089834;28;20463;-63
2022/09/28 01:12:05;;;;;;;130.85;123.80;;;9.60;99.90;;;;;;5088764;28;20421;-63
2022/09/28 01:14:31;;;;;;;134.88;127.55;;;9.60;99.90;;;;;;5088988;28;20455;-63
2022/09/28 01:17:05;;;;;;;134.63;127.40;;;9.50;99.90;;;;;;5086734;28;20393;-63
2022/09/28 01:19:54;;;;;;;137.60;129.97;;;9.50;99.90;;;;;;5088018;28;20709;-63
2022/09/28 01:22:34;;;;;;;140.45;132.82;;;9.50;99.90;;;;;;5088394;28;20609;-63
2022/09/28 01:25:11;;;;;;;132.63;125.43;;;9.60;99.90;;;;;;5088210;28;20418;-63
2022/09/28 01:27:50;;;;;;;135.10;127.82;;;9.60;99.90;;;;;;5090164;28;20374;-63
2022/09/28 01:30:19;;;;;;;129.48;122.43;;;9.60;99.90;;;;;;5090817;28;20401;-63
2022/09/28 01:33:02;;;;;;;132.30;125.10;;;9.50;99.90;;;;;;5091446;28;20386;-63
2022/09/28 01:35:28;;;;;;;138.57;131.07;;;9.50;99.90;;;;;;5090011;28;20697;-63
2022/09/28 01:38:09;;;;;;;151.73;143.27;;;9.40;99.90;;;;;;5088883;28;20396;-63
2022/09/28 01:40:36;;;;;;;184.90;174.93;;;9.30;99.90;;;;;;5088961;28;20637;-63
2022/09/28 01:43:08;;;;;;;193.00;182.50;;;9.20;99.90;;;;;;5089921;28;20982;-62
2022/09/28 01:45:44;;;;;;;179.10;169.50;;;9.20;99.90;;;;;;5090007;28;20496;-63
2022/09/28 01:48:13;;;;;;;187.05;177.02;;;9.10;99.90;;;;;;5093707;28;20382;-62
2022/09/28 01:50:41;;;;;;;170.68;161.68;;;9.10;99.90;;;;;;5092489;28;20385;-63
2022/09/28 01:53:27;;;;;;;183.20;173.45;;;9.20;99.90;;;;;;5093555;28;20381;-62
2022/09/28 01:55:56;;;;;;;174.20;164.80;;;9.10;99.90;;;;;;5091746;28;20425;-63
2022/09/28 01:58:44;;;;;;;167.02;158.05;;;9.10;99.90;;;;;;5092302;28;20440;-63
2022/09/28 02:01:21;;;;;;;167.20;158.10;;;9.10;99.90;;;;;;5091821;28;20405;-62
2022/09/28 02:04:03;;;;;;;173.75;164.43;;;9.10;99.90;;;;;;5091744;28;20381;-63
2022/09/28 02:06:37;;;;;;;177.98;168.40;;;9.10;99.90;;;;;;5092976;28;20377;-63
2022/09/28 02:09:10;;;;;;;171.38;162.13;;;9.10;99.90;;;;;;5095844;28;20955;-63
2022/09/28 02:11:38;;;;;;;161.05;152.43;;;9.10;99.90;;;;;;5099110;28;20378;-65
2022/09/28 02:14:09;;;;;;;158.93;150.27;;;9.30;99.90;;;;;;5098763;28;20378;-63
2022/09/28 02:16:43;;;;;;;147.45;139.52;;;9.40;99.90;;;;;;5098897;28;20631;-63
2022/09/28 02:19:16;;;;;;;135.70;128.50;;;9.40;99.90;;;;;;5098871;28;20694;-63
2022/09/28 02:21:48;;;;;;;132.33;125.03;;;9.50;99.90;;;;;;5097878;28;20415;-62
2022/09/28 02:24:32;;;;;;;124.05;117.28;;;9.50;99.90;;;;;;5096402;28;20370;-63
2022/09/28 02:27:02;;;;;;;111.90;105.90;;;9.60;99.90;;;;;;5097405;28;20408;-63
2022/09/28 02:29:27;;;;;;;112.32;106.20;;;9.60;99.90;;;;;;5097442;28;20389;-63
2022/09/28 02:31:53;;;;;;;111.40;105.20;;;9.60;99.90;;;;;;5097111;28;20453;-63
2022/09/28 02:34:19;;;;;;;116.23;110.00;;;9.60;99.90;;;;;;5098616;28;20454;-62
2022/09/28 02:36:45;;;;;;;106.88;101.05;;;9.60;99.90;;;;;;5098771;28;20386;-63
2022/09/28 02:39:13;;;;;;;106.93;101.22;;;9.60;99.90;;;;;;5100525;28;20691;-63
2022/09/28 02:41:56;;;;;;;110.93;104.93;;;9.60;99.90;;;;;;5100445;28;20373;-63
2022/09/28 02:44:40;;;;;;;101.28;95.70;;;9.60;99.90;;;;;;5101359;28;20477;-62
2022/09/28 02:47:21;;;;;;;105.50;99.78;;;9.60;99.90;;;;;;5099998;28;20414;-63
2022/09/28 02:49:59;;;;;;;108.38;102.57;;;9.60;99.90;;;;;;5099883;28;20786;-63
2022/09/28 02:52:42;;;;;;;109.57;103.65;;;9.60;99.90;;;;;;5100257;28;20377;-63
2022/09/28 02:55:18;;;;;;;105.53;99.80;;;9.60;99.90;;;;;;5097897;28;20667;-62
2022/09/28 02:57:56;;;;;;;103.85;98.15;;;9.60;99.90;;;;;;5095064;28;20439;-63
2022/09/28 03:00:23;;;;;;;105.78;99.90;;;9.60;99.90;;;;;;5095510;28;20406;-62
2022/09/28 03:03:19;;;;;;;105.43;99.68;;;9.60;99.90;;;;;;5095296;28;20433;-63
2022/09/28 03:06:02;;;;;;;107.57;101.78;;;9.60;99.90;;;;;;5094821;28;20468;-63
2022/09/28 03:08:48;;;;;;;110.82;104.90;;;9.60;99.90;;;;;;5095523;28;20408;-62
2022/09/28 03:11:24;;;;;;;101.53;96.03;;;9.50;99.90;;;;;;5097079;28;20382;-63
2022/09/28 03:13:50;;;;;;;106.97;101.18;;;9.50;99.90;;;;;;5096620;28;20716;-63
2022/09/28 03:16:18;;;;;;;107.30;101.45;;;9.50;99.90;;;;;;5095056;28;20418;-63
2022/09/28 03:18:44;;;;;;;114.97;108.78;;;9.50;99.90;;;;;;5095418;28;20800;-63
2022/09/28 03:21:11;;;;;;;105.00;99.07;;;9.40;99.90;;;;;;5091913;28;20666;-63
2022/09/28 03:23:37;;;;;;;113.35;106.97;;;9.40;99.90;;;;;;5093725;28;20385;-63
2022/09/28 03:26:03;;;;;;;114.10;107.93;;;9.40;99.90;;;;;;5093321;28;20390;-62
2022/09/28 03:28:28;;;;;;;117.65;111.18;;;9.30;99.90;;;;;;5093417;28;20477;-62
2022/09/28 03:30:55;;;;;;;123.68;116.68;;;9.30;99.90;;;;;;5094460;28;20685;-62
2022/09/28 03:33:20;;;;;;;117.22;110.85;;;9.30;99.90;;;;;;5093625;28;20386;-63
2022/09/28 03:35:48;;;;;;;123.68;116.88;;;9.30;99.90;;;;;;5093867;28;20735;-63
2022/09/28 03:38:13;;;;;;;125.15;118.35;;;9.30;99.90;;;;;;5091484;28;20393;-63
2022/09/28 03:40:39;;;;;;;122.97;116.27;;;9.30;99.90;;;;;;5091865;28;20489;-63
2022/09/28 03:43:04;;;;;;;121.18;114.55;;;9.30;99.90;;;;;;5093075;28;20755;-63
2022/09/28 03:45:30;;;;;;;120.90;114.23;;;9.30;99.90;;;;;;5091081;28;20390;-63
2022/09/28 03:47:56;;;;;;;117.90;111.30;;;9.20;99.90;;;;;;5092056;28;20394;-63
2022/09/28 03:50:22;;;;;;;122.77;115.97;;;9.30;99.90;;;;;;5094250;28;20433;-63
2022/09/28 03:52:47;;;;;;;123.30;116.47;;;9.30;99.90;;;;;;5092427;28;21003;-63
2022/09/28 03:55:13;;;;;;;129.00;121.55;;;9.30;99.90;;;;;;5090904;28;20382;-63
2022/09/28 03:57:38;;;;;;;138.63;130.52;;;9.20;99.90;;;;;;5093810;28;20416;-63
2022/09/28 04:00:05;;;;;;;130.80;123.00;;;9.20;99.90;;;;;;5091631;28;20479;-62
2022/09/28 04:02:30;;;;;;;122.10;114.78;;;9.20;99.90;;;;;;5091570;28;20382;-63
2022/09/28 04:04:56;;;;;;;129.02;121.22;;;9.10;99.90;;;;;;5090375;28;20389;-62
2022/09/28 04:07:22;;;;;;;174.73;164.45;;;9.10;99.90;;;;;;5091300;28;20402;-62
2022/09/28 04:09:47;;;;;;;172.55;162.57;;;8.90;99.90;;;;;;5091173;28;20801;-61
2022/09/28 04:12:13;;;;;;;178.63;168.13;;;9.00;99.90;;;;;;5091535;28;20389;-61
2022/09/28 04:14:38;;;;;;;177.10;166.90;;;9.00;99.90;;;;;;5091475;28;20793;-62
2022/09/28 04:17:05;;;;;;;177.15;166.88;;;9.00;99.90;;;;;;5089496;28;20809;-62
2022/09/28 04:19:30;;;;;;;155.13;145.10;;;9.00;99.90;;;;;;5089786;28;20398;-62
2022/09/28 04:21:56;;;;;;;167.63;157.33;;;9.00;99.90;;;;;;5087769;28;20393;-62
2022/09/28 04:24:22;;;;;;;169.95;158.73;;;8.80;99.90;;;;;;5087304;28;20478;-62
2022/09/28 04:26:48;;;;;;;178.85;168.32;;;8.60;99.90;;;;;;5086161;28;20379;-62
2022/09/28 04:29:16;;;;;;;192.93;181.52;;;8.40;99.90;;;;;;5084072;28;20382;-62
2022/09/28 04:31:45;;;;;;;212.82;200.20;;;8.40;99.90;;;;;;5087133;28;20390;-62
2022/09/28 04:34:13;;;;;;;201.25;189.35;;;8.40;99.90;;;;;;5087347;28;20398;-63
2022/09/28 04:36:39;;;;;;;211.70;199.20;;;8.50;99.90;;;;;;5088367;28;20719;-63
2022/09/28 04:39:05;;;;;;;206.45;194.32;;;8.40;99.90;;;;;;5087255;28;20396;-62
2022/09/28 04:41:31;;;;;;;213.60;201.03;;;8.50;99.90;;;;;;5085324;28;20844;-62
2022/09/28 04:43:57;;;;;;;206.17;194.27;;;8.60;99.90;;;;;;5084263;28;20390;-62
2022/09/28 04:46:22;;;;;;;213.57;200.97;;;8.70;99.90;;;;;;5080883;28;20577;-63
2022/09/28 04:48:48;;;;;;;195.70;184.13;;;8.70;99.90;;;;;;5079846;28;20518;-62
2022/09/28 04:51:14;;;;;;;168.68;158.25;;;8.60;99.90;;;;;;5079618;28;20674;-62
2022/09/28 04:53:39;;;;;;;195.95;184.23;;;8.60;99.90;;;;;;5079012;28;20624;-62
2022/09/28 04:56:12;;;;;;;197.23;185.50;;;8.70;99.90;;;;;;5080425;28;20639;-64
2022/09/28 04:58:39;;;;;;;183.30;172.23;;;8.80;99.90;;;;;;5081660;28;20797;-63
2022/09/28 05:01:12;;;;;;;190.50;178.88;;;8.70;99.90;;;;;;5081819;28;20401;-63
2022/09/28 05:03:37;;;;;;;185.40;174.65;;;8.80;99.90;;;;;;5082166;28;20401;-65
2022/09/28 05:06:05;;;;;;;179.90;169.17;;;8.80;99.90;;;;;;5082524;28;20813;-63
2022/09/28 05:08:31;;;;;;;180.30;169.55;;;8.90;99.90;;;;;;5082046;28;20793;-62
2022/09/28 05:10:59;;;;;;;173.38;162.90;;;9.00;99.90;;;;;;5081882;28;20409;-63
2022/09/28 05:13:25;;;;;;;176.98;166.20;;;9.00;99.90;;;;;;5083113;28;20443;-63
2022/09/28 05:15:53;;;;;;;168.80;158.48;;;9.00;99.90;;;;;;5081572;28;20397;-63
2022/09/28 05:18:19;;;;;;;168.95;158.57;;;8.70;99.90;;;;;;5082286;28;20847;-63
2022/09/28 05:20:44;;;;;;;173.33;162.93;;;8.50;99.90;;;;;;5080193;28;20406;-63
2022/09/28 05:23:11;;;;;;;176.93;166.27;;;8.40;99.90;;;;;;5081483;28;20696;-63
2022/09/28 05:25:37;;;;;;;194.60;183.05;;;8.30;99.90;;;;;;5084181;28;20450;-63
2022/09/28 05:28:03;;;;;;;184.35;173.40;;;8.30;99.90;;;;;;5079812;28;20381;-63
2022/09/28 05:30:29;;;;;;;189.47;177.70;;;8.40;99.90;;;;;;5080990;28;20403;-63
2022/09/28 05:32:55;;;;;;;194.37;182.53;;;8.40;99.90;;;;;;5084908;28;20636;-62
2022/09/28 05:35:20;;;;;;;224.13;210.80;;;8.30;99.90;;;;;;5084530;28;20385;-62
2022/09/28 05:37:46;;;;;;;217.25;204.63;;;8.30;99.90;;;;;;5078759;28;20397;-63
2022/09/28 05:40:12;;;;;;;201.00;189.20;;;8.40;99.90;;;;;;5077363;28;20479;-62
2022/09/28 05:42:38;;;;;;;198.10;186.43;;;8.50;99.90;;;;;;5078028;28;20426;-62
2022/09/28 05:45:04;;;;;;;186.93;175.68;;;8.60;99.90;;;;;;5075102;28;20402;-63
2022/09/28 05:47:29;;;;;;;168.05;157.63;;;8.60;99.90;;;;;;5073152;28;20394;-63
2022/09/28 05:49:55;;;;;;;171.02;160.63;;;8.60;99.90;;;;;;5072892;28;20531;-63
2022/09/28 05:52:21;;;;;;;190.47;178.87;;;8.50;99.90;;;;;;5074958;28;20777;-63
2022/09/28 05:54:47;;;;;;;180.93;169.97;;;8.30;99.90;;;;;;5075637;28;20400;-63
2022/09/28 05:57:13;;;;;;;178.73;167.95;;;8.30;99.90;;;;;;5074055;28;20645;-63
2022/09/28 05:59:38;;;;;;;181.80;170.85;;;8.40;99.90;;;;;;5077279;28;20428;-63
2022/09/28 06:02:05;;;;;;;170.00;159.85;;;8.40;99.90;;;;;;5075520;28;20580;-63
2022/09/28 06:04:31;;;;;;;171.38;161.13;;;8.50;99.90;;;;;;5074654;28;20793;-63
2022/09/28 06:06:57;;;;;;;168.25;158.23;;;8.60;99.90;;;;;;5073894;28;20650;-63
2022/09/28 06:09:23;;;;;;;170.32;160.00;;;8.60;99.90;;;;;;5074242;28;20455;-63
2022/09/28 06:11:49;;;;;;;171.25;160.98;;;8.70;99.90;;;;;;5074788;28;20609;-63
2022/09/28 06:14:15;;;;;;;176.35;165.82;;;8.50;99.90;;;;;;5075661;28;20382;-63
2022/09/28 06:16:41;;;;;;;154.47;144.90;;;8.60;99.90;;;;;;5073228;28;20467;-63
2022/09/28 06:19:10;;;;;;;156.23;146.57;;;8.60;99.90;;;;;;5075244;28;20521;-63
2022/09/28 06:21:36;;;;;;;167.63;157.25;;;8.50;99.90;;;;;;5075910;28;20438;-63
2022/09/28 06:24:03;;;;;;;156.80;147.20;;;8.60;99.90;;;;;;5072742;28;20583;-63
2022/09/28 06:26:29;;;;;;;160.70;151.05;;;8.70;99.90;;;;;;5074747;28;20742;-63
2022/09/28 06:28:54;;;;;;;158.27;148.57;;;8.70;99.90;;;;;;5076168;28;20417;-63
2022/09/28 06:31:22;;;;;;;155.82;146.10;;;8.80;99.90;;;;;;5074650;28;20690;-64
2022/09/28 06:33:49;;;;;;;146.68;137.65;;;8.80;99.90;;;;;;5073247;28;20490;-64
2022/09/28 06:36:15;;;;;;;146.38;137.35;;;8.90;99.90;;;;;;5071543;28;20378;-63
2022/09/28 06:38:41;;;;;;;143.35;134.65;;;8.80;99.90;;;;;;5071282;28;20377;-63
2022/09/28 06:41:07;;;;;;;145.02;136.13;;;8.80;99.90;;;;;;5073118;28;20663;-63
2022/09/28 06:43:34;;;;;;;95.78;89.55;;;8.90;99.90;;;;;;5073827;28;20390;-63
2022/09/28 06:46:00;;;;;;;101.55;94.75;;;8.70;99.90;;;;;;5072366;28;20394;-65
2022/09/28 06:48:25;;;;;;;100.75;94.45;;;8.70;99.90;;;;;;5074285;28;20653;-63
2022/09/28 06:50:51;;;;;;;101.23;94.83;;;8.80;99.90;;;;;;5073470;28;20386;-64
2022/09/28 06:53:17;;;;;;;103.40;96.70;;;8.80;99.90;;;;;;5075975;28;20386;-64
2022/09/28 06:55:47;;;;;;;103.33;96.73;;;8.80;99.90;;;;;;5075884;28;20741;-63
2022/09/28 06:58:16;;;;;;;94.93;88.50;;;8.90;99.90;;;;;;5076385;28;20811;-63
2022/09/28 07:00:42;;;;;;;100.45;94.07;;;8.90;99.90;;;;;;5077369;28;20653;-63
2022/09/28 07:03:17;;;;;;;94.22;87.75;;;8.90;99.90;;;;;;5079531;28;20420;-64
2022/09/28 07:05:45;;;;;;;92.20;85.80;;;8.90;99.90;;;;;;5076827;28;20603;-60
2022/09/28 07:08:11;;;;;;;100.88;94.00;;;8.70;99.90;;;;;;5075091;28;20441;-61
2022/09/28 07:10:42;;;;;;;111.28;104.03;;;8.50;99.90;;;;;;5077778;28;20649;-62
2022/09/28 07:13:08;;;;;;;119.10;111.30;;;8.50;99.90;;;;;;5077044;28;20799;-62
2022/09/28 07:15:35;;;;;;;125.05;117.32;;;8.50;99.90;;;;;;5074421;28;20874;-62
2022/09/28 07:18:02;;;;;;;120.50;112.47;;;8.50;99.90;;;;;;5071759;28;20386;-62
2022/09/28 07:20:28;;;;;;;120.15;112.30;;;8.60;99.90;;;;;;5073387;28;20532;-62
2022/09/28 07:22:58;;;;;;;120.07;112.53;;;8.60;99.90;;;;;;5073633;28;20624;-62
2022/09/28 07:25:25;;;;;;;101.55;94.85;;;8.70;99.90;;;;;;5072804;28;20677;-62
2022/09/28 07:27:54;;;;;;;97.47;91.38;;;8.70;99.90;;;;;;5071128;28;20524;-62
2022/09/28 07:30:20;;;;;;;99.03;92.60;;;8.70;99.90;;;;;;5072714;28;20432;-62
2022/09/28 07:32:45;;;;;;;116.60;108.70;;;8.70;99.90;;;;;;5074166;28;20428;-62
2022/09/28 07:35:11;;;;;;;115.67;108.10;;;8.60;99.90;;;;;;5073763;28;20477;-62
2022/09/28 07:37:37;;;;;;;120.70;113.07;;;8.70;99.90;;;;;;5074818;28;20408;-62
2022/09/28 07:42:47;;;;;;;119.68;111.85;;;8.90;99.90;;;;;;5083452;28;20403;-61
2022/09/28 07:45:13;;;;;;;110.75;103.45;;;9.00;99.90;;;;;;5083330;28;20394;-62
2022/09/28 07:47:39;;;;;;;102.68;95.65;;;9.10;99.90;;;;;;5082843;28;20382;-61
2022/09/28 07:50:05;;;;;;;95.93;89.40;;;9.10;99.90;;;;;;5084563;28;20390;-62
2022/09/28 07:52:33;;;;;;;92.68;86.43;;;9.10;99.90;;;;;;5083924;28;20400;-62
2022/09/28 07:55:00;;;;;;;89.55;83.70;;;9.20;99.90;;;;;;5084256;28;20386;-61
2022/09/28 07:57:26;;;;;;;86.07;80.00;;;9.20;99.90;;;;;;5085331;28;20407;-62
2022/09/28 07:59:55;;;;;;;84.15;78.30;;;9.10;99.90;;;;;;5083911;28;20851;-63
2022/09/28 08:02:21;;;;;;;90.18;83.63;;;9.10;99.90;;;;;;5082847;28;20394;-63
2022/09/28 08:04:47;;;;;;;89.33;83.20;;;9.10;99.90;;;;;;5083472;28;20442;-63
2022/09/28 08:07:16;;;;;;;83.28;77.57;;;9.10;99.90;;;;;;5084737;28;20485;-62
2022/09/28 08:09:42;;;;;;;91.05;84.35;;;9.20;99.90;;;;;;5086212;28;20386;-62
2022/09/28 08:12:09;;;;;;;88.95;82.35;;;9.10;99.90;;;;;;5086680;28;20385;-62
2022/09/28 08:14:36;;;;;;;90.45;83.95;;;9.10;99.90;;;;;;5088964;28;20378;-63
2022/09/28 08:17:03;;;;;;;98.50;91.60;;;9.00;99.90;;;;;;5088716;28;20397;-63
2022/09/28 08:22:17;;;;;;;91.32;84.50;;;9.20;99.90;;;;;;5063864;28;20398;-64
2022/09/28 08:24:43;;;;;;;82.38;76.18;;;9.10;99.90;;;;;;5083161;28;20435;-63
2022/09/28 08:27:09;;;;;;;94.43;87.82;;;8.90;99.90;;;;;;5083417;28;20378;-64
2022/09/28 08:29:35;;;;;;;99.97;93.13;;;8.90;99.90;;;;;;5086082;28;20813;-64
2022/09/28 08:32:01;;;;;;;100.07;92.95;;;9.00;99.90;;;;;;5084537;28;20401;-64
2022/09/28 08:34:27;;;;;;;86.40;80.13;;;9.10;99.90;;;;;;5082975;28;20755;-63
2022/09/28 08:36:56;;;;;;;90.07;83.82;;;9.00;99.90;;;;;;5084513;28;20390;-64
2022/09/28 08:39:21;;;;;;;93.80;87.07;;;9.00;99.90;;;;;;5085490;28;20385;-57
2022/09/28 08:41:57;;;;;;;91.93;85.32;;;8.90;99.90;;;;;;5084767;28;20378;-58
2022/09/28 08:44:25;;;;;;;97.57;90.68;;;9.00;99.90;;;;;;5081298;28;20457;-64
2022/09/28 08:46:57;;;;;;;102.88;95.78;;;8.90;99.90;;;;;;5081894;28;20404;-64
2022/09/28 08:49:46;;;;;;;94.55;87.97;;;8.90;99.90;;;;;;5080216;28;20389;-64
2022/09/28 08:52:17;;;;;;;99.22;92.50;;;8.80;99.90;;;;;;5081725;28;20665;-64
2022/09/28 08:54:55;;;;;;;107.93;100.38;;;8.70;99.90;;;;;;5083270;28;20666;-64
2022/09/28 08:57:30;;;;;;;111.82;104.68;;;8.60;99.90;;;;;;5083685;28;20682;-64
2022/09/28 08:59:58;;;;;;;119.10;111.60;;;8.60;99.90;;;;;;5083824;28;20411;-63
2022/09/28 09:02:38;;;;;;;110.57;103.22;;;8.70;99.90;;;;;;5074877;28;20613;-63
2022/09/28 09:05:06;;;;;;;103.93;97.32;;;8.90;99.90;;;;;;5073306;28;20773;-63
2022/09/28 09:08:02;;;;;;;101.95;95.28;;;9.00;99.90;;;;;;5074228;28;20706;-63
2022/09/28 09:10:48;;;;;;;92.32;86.22;;;9.10;99.90;;;;;;5074679;28;20459;-63
2022/09/28 09:13:37;;;;;;;88.15;82.45;;;9.20;99.90;;;;;;5077459;28;20476;-64
2022/09/28 09:16:16;;;;;;;85.60;79.55;;;9.40;99.90;;;;;;5078243;28;20508;-63
2022/09/28 09:18:54;;;;;;;79.88;74.45;;;9.40;99.90;;;;;;5075101;28;20668;-63
2022/09/28 09:21:37;;;;;;;76.38;71.32;;;9.40;99.90;;;;;;5074783;28;20402;-64
2022/09/28 09:24:14;;;;;;;75.78;70.68;;;9.50;99.90;;;;;;5075161;28;20812;-63
2022/09/28 09:26:40;;;;;;;75.67;70.27;;;9.50;99.90;;;;;;5076227;28;20416;-63
2022/09/28 09:29:12;;;;;;;77.85;72.65;;;9.50;99.90;;;;;;5077420;28;20690;-63
2022/09/28 09:32:15;;;;;;;72.32;67.25;;;9.60;99.90;;;;;;5076434;28;20397;-63
2022/09/28 09:35:10;;;;;;;78.30;73.00;;;9.50;99.90;;;;;;5078585;28;20514;-63
2022/09/28 09:38:00;;;;;;;80.87;75.03;;;9.30;99.90;;;;;;5035483;28;20394;-63
2022/09/28 09:41:08;;;;;;;82.85;77.45;;;9.30;99.90;;;;;;5077664;28;20401;-63
2022/09/28 09:43:58;;;;;;;78.78;73.43;;;9.30;99.90;;;;;;5072618;28;20550;-64
2022/09/28 09:46:41;;;;;;;82.00;76.20;;;9.60;99.90;;;;;;5074180;28;20545;-63
2022/09/28 09:49:19;;;;;;;78.72;73.07;;;9.50;99.90;;;;;;5074024;28;20384;-64
2022/09/28 09:52:04;;;;;;;80.82;74.82;;;9.40;99.90;;;;;;5072795;28;20523;-63
2022/09/28 09:54:46;;;;;;;82.68;76.97;;;9.30;99.90;;;;;;5071657;28;20663;-63
2022/09/28 09:57:16;;;;;;;80.03;74.45;;;9.60;99.90;;;;;;5073315;28;20382;-63
2022/09/28 09:59:43;;;;;;;77.72;71.82;;;9.80;99.90;;;;;;5070532;28;20405;-63
2022/09/28 10:02:19;;;;;;;77.13;71.70;;;9.70;99.90;;;;;;5072965;28;20386;-63
2022/09/28 10:04:48;;;;;;;72.25;66.85;;;9.70;99.90;;;;;;5070322;28;20466;-64
2022/09/28 10:07:29;;;;;;;79.28;73.88;;;9.80;99.90;;;;;;5068767;28;20439;-63
2022/09/28 10:09:57;;;;;;;75.22;69.88;;;9.90;99.90;;;;;;5067293;28;20456;-63
2022/09/28 10:12:23;;;;;;;80.03;74.63;;;9.90;99.90;;;;;;5068878;28;20383;-63
2022/09/28 10:14:49;;;;;;;73.50;68.77;;;9.90;99.90;;;;;;5072757;28;20421;-63
2022/09/28 10:17:17;;;;;;;80.90;75.37;;;10.10;99.90;;;;;;5073888;28;20386;-63
2022/09/28 10:19:43;;;;;;;80.53;74.93;;;10.20;99.90;;;;;;5069855;28;20608;-63
2022/09/28 10:22:14;;;;;;;81.32;75.55;;;10.30;99.90;;;;;;5071904;28;20493;-63
2022/09/28 10:24:46;;;;;;;83.25;77.55;;;10.40;99.90;;;;;;5075156;28;20860;-63
2022/09/28 10:27:18;;;;;;;73.05;68.25;;;10.60;99.90;;;;;;5075022;28;20382;-62
2022/09/28 10:29:48;;;;;;;76.87;72.10;;;10.80;99.90;;;;;;5077559;28;20786;-63
2022/09/28 10:32:26;;;;;;;81.70;76.68;;;10.90;99.90;;;;;;5078145;28;20873;-63
2022/09/28 10:35:09;;;;;;;74.07;69.15;;;11.10;99.90;;;;;;5076294;28;20385;-62
2022/09/28 10:37:58;;;;;;;73.35;68.70;;;11.30;99.90;;;;;;5071834;28;20799;-62
2022/09/28 10:40:30;;;;;;;92.63;87.27;;;11.50;99.90;;;;;;5071365;28;20885;-63
2022/09/28 10:43:05;;;;;;;82.10;76.97;;;11.90;99.90;;;;;;5079086;28;20485;-63
2022/09/28 10:45:36;;;;;;;77.47;72.67;;;11.80;99.90;;;;;;5082929;28;20394;-63
2022/09/28 10:48:13;;;;;;;97.22;91.78;;;11.70;99.90;;;;;;5085135;28;20381;-63
2022/09/28 10:50:40;;;;;;;87.25;82.03;;;11.80;99.90;;;;;;5086186;28;20463;-63
2022/09/28 10:53:18;;;;;;;97.13;91.53;;;11.80;99.90;;;;;;5085079;28;20421;-64
2022/09/28 10:56:03;;;;;;;94.85;89.55;;;12.10;99.90;;;;;;5087635;28;20409;-63
2022/09/28 10:58:36;;;;;;;68.03;63.72;;;12.70;99.90;;;;;;5084428;28;20390;-63
2022/09/28 11:01:08;;;;;;;56.75;53.15;;;13.10;99.90;;;;;;5085900;28;20406;-64
2022/09/28 11:03:57;;;;;;;58.45;54.97;;;13.20;99.90;;;;;;5087688;28;20406;-63
2022/09/28 11:06:31;;;;;;;39.28;36.60;;;13.60;99.90;;;;;;5084291;28;20386;-63
2022/09/28 11:09:00;;;;;;;38.65;36.15;;;13.50;99.90;;;;;;5082246;28;20409;-63
2022/09/28 11:11:28;;;;;;;42.25;39.53;;;13.70;99.90;;;;;;5080257;28;20472;-63
2022/09/28 11:13:59;;;;;;;39.72;37.33;;;13.70;99.90;;;;;;5076739;28;20739;-63
2022/09/28 11:16:33;;;;;;;40.38;37.67;;;13.90;99.90;;;;;;5076766;28;20393;-62
2022/09/28 11:19:31;;;;;;;39.53;37.08;;;14.20;99.90;;;;;;5076026;28;20790;-62
2022/09/28 11:21:56;;;;;;;38.97;36.42;;;14.50;99.90;;;;;;5077731;28;20411;-62
2022/09/28 11:24:23;;;;;;;38.93;36.63;;;14.00;99.90;;;;;;5079995;28;20805;-63
2022/09/28 11:26:53;;;;;;;39.05;36.47;;;14.30;99.90;;;;;;5078311;28;20378;-63
2022/09/28 11:29:25;;;;;;;40.72;38.17;;;14.00;99.90;;;;;;5079491;28;20849;-63
2022/09/28 11:31:51;;;;;;;39.35;36.88;;;14.00;99.90;;;;;;5081611;28;20406;-64
2022/09/28 11:34:28;;;;;;;39.47;37.07;;;14.30;99.90;;;;;;5077070;28;20817;-61
2022/09/28 11:37:29;;;;;;;38.00;35.65;;;14.40;99.90;;;;;;5080585;28;20396;-61
2022/09/28 11:40:33;;;;;;;38.30;35.80;;;14.10;99.90;;;;;;5081528;28;20394;-62
2022/09/28 11:43:31;;;;;;;38.00;35.60;;;13.30;99.90;;;;;;5084576;28;20378;-63
2022/09/28 11:46:03;;;;;;;36.40;34.10;;;13.00;99.90;;;;;;5084537;28;20797;-63
2022/09/28 11:48:46;;;;;;;38.50;36.00;;;12.80;99.90;;;;;;5082424;28;20382;-63
2022/09/28 11:51:21;;;;;;;48.42;45.60;;;12.50;99.90;;;;;;5081669;28;20386;-63
2022/09/28 11:53:57;;;;;;;46.92;44.03;;;12.60;99.90;;;;;;5079977;28;20390;-63
2022/09/28 11:56:39;;;;;;;38.60;36.17;;;13.00;99.90;;;;;;5081373;28;20390;-63
2022/09/28 11:59:30;;;;;;;38.47;36.33;;;13.10;99.90;;;;;;5082838;28;20388;-63
2022/09/28 12:01:56;;;;;;;33.03;31.02;;;13.80;99.90;;;;;;5080644;28;20386;-63
2022/09/28 12:04:27;;;;;;;34.40;32.40;;;13.80;99.90;;;;;;5082231;28;21040;-63
2022/09/28 12:07:25;;;;;;;34.60;32.50;;;14.00;99.90;;;;;;5083008;28;20706;-63
2022/09/28 12:10:11;;;;;;;34.03;31.90;;;14.30;99.90;;;;;;5059583;28;20386;-62
2022/09/28 12:12:57;;;;;;;31.33;29.55;;;14.30;99.90;;;;;;5079493;28;20393;-61
2022/09/28 12:15:27;;;;;;;33.88;31.90;;;14.40;99.90;;;;;;5079039;28;20456;-61
2022/09/28 12:18:02;;;;;;;32.65;30.67;;;14.80;99.90;;;;;;5080944;28;20389;-63
2022/09/28 12:20:34;;;;;;;31.92;30.13;;;15.00;99.90;;;;;;5080296;28;20394;-63
2022/09/28 12:23:13;;;;;;;31.65;29.67;;;15.00;99.90;;;;;;5080786;28;20382;-63
2022/09/28 12:25:46;;;;;;;32.88;31.08;;;15.20;99.90;;;;;;5078219;28;20381;-63
2022/09/28 12:28:48;;;;;;;34.83;32.92;;;15.30;99.90;;;;;;5078009;28;20389;-62
2022/09/28 12:31:20;;;;;;;36.55;34.60;;;15.50;99.90;;;;;;5079009;28;20454;-63
2022/09/28 12:33:49;;;;;;;39.85;37.65;;;15.90;99.90;;;;;;5077408;28;20378;-62
2022/09/28 12:36:51;;;;;;;30.98;29.27;;;15.80;99.90;;;;;;5077577;28;20393;-62
2022/09/28 12:39:43;;;;;;;34.70;32.80;;;15.90;99.90;;;;;;5071838;28;20386;-62
2022/09/28 12:42:28;;;;;;;33.30;31.50;;;15.90;99.90;;;;;;5077566;28;20388;-62
2022/09/28 12:45:17;;;;;;;31.83;30.05;;;16.00;99.90;;;;;;5074676;28;20412;-62
2022/09/28 12:47:49;;;;;;;32.10;30.30;;;15.80;99.90;;;;;;5075342;28;20777;-62
2022/09/28 12:50:28;;;;;;;30.30;28.70;;;15.50;99.90;;;;;;5077005;28;20968;-62